Time;durP1;ratioP1;P1;durP2;ratioP2;P2;SDS_P1;SDS_P2;PMS_P1;PMS_P2;Temp;Humidity;BMP_temperature;BMP_pressure;BME280_temperature;BME280_humidity;BME280_pressure;Samples;Min_cycle;Max_cycle;Signal;HPM_P1;HPM_P2
2022/03/21 05:02:37;;;;;;;10.30;7.07;;;4.30;86.40;;;;;;4945792;23;20641;-69
2022/03/21 05:05:05;;;;;;;9.18;8.20;;;4.30;87.70;;;;;;4934586;29;20209;-70
2022/03/21 05:07:31;;;;;;;10.18;6.43;;;4.30;87.30;;;;;;4932960;29;20210;-69
2022/03/21 05:09:58;;;;;;;7.22;6.25;;;4.30;87.40;;;;;;4933163;29;20210;-69
2022/03/21 05:12:25;;;;;;;8.55;7.57;;;4.30;88.50;;;;;;4933177;29;20304;-68
2022/03/21 05:14:51;;;;;;;9.45;8.20;;;4.30;88.40;;;;;;4948061;23;20272;-69
2022/03/21 05:17:18;;;;;;;9.32;8.38;;;4.30;89.30;;;;;;4942080;29;20205;-69
2022/03/21 05:19:46;;;;;;;13.77;8.00;;;4.30;89.10;;;;;;4950855;28;20220;-69
2022/03/21 05:22:12;;;;;;;3.38;3.08;;;4.30;89.90;;;;;;4949716;29;20614;-69
2022/03/21 05:35:52;;;;;;;7.00;5.00;;;4.20;89.90;;;;;;4933633;29;20221;-69
2022/03/21 05:35:55;;;;;;;9.02;7.30;;;4.20;89.50;;;;;;4924254;29;20679;-69
2022/03/21 05:38:23;;;;;;;13.23;8.70;;;4.30;89.90;;;;;;4933134;29;20364;-69
2022/03/21 05:40:50;;;;;;;13.05;8.73;;;4.30;90.40;;;;;;4933882;29;20206;-69
2022/03/21 05:43:17;;;;;;;15.07;9.50;;;4.20;90.40;;;;;;4933451;29;20280;-69
2022/03/21 05:45:43;;;;;;;8.30;6.20;;;4.20;90.60;;;;;;4933144;29;20229;-69
2022/03/21 05:50:55;;;;;;;16.08;9.40;;;4.40;90.30;;;;;;4933074;29;20196;-68
2022/03/21 05:53:22;;;;;;;9.20;6.88;;;4.30;90.30;;;;;;4933197;29;20761;-68
2022/03/21 05:55:48;;;;;;;11.80;6.65;;;4.40;90.40;;;;;;4933216;29;20323;-70
2022/03/21 05:58:15;;;;;;;13.38;9.30;;;4.40;90.50;;;;;;4932945;29;20239;-70
2022/03/21 06:00:42;;;;;;;7.75;6.45;;;4.40;90.80;;;;;;4933244;29;20265;-70
2022/03/21 06:03:10;;;;;;;6.10;4.15;;;4.40;90.60;;;;;;4933134;29;20379;-70
2022/03/21 06:05:37;;;;;;;6.63;3.88;;;4.50;90.30;;;;;;4930474;29;20317;-70
2022/03/21 06:08:05;;;;;;;3.83;3.63;;;4.50;90.00;;;;;;4932737;29;20206;-69
2022/03/21 06:10:32;;;;;;;12.30;8.68;;;4.60;90.00;;;;;;4933182;29;20707;-69
2022/03/21 06:13:00;;;;;;;12.95;10.10;;;4.60;90.00;;;;;;4931931;29;20610;-69
2022/03/21 06:15:26;;;;;;;7.53;6.90;;;4.60;90.10;;;;;;4930037;29;20314;-69
2022/03/21 06:17:58;;;;;;;10.98;8.48;;;4.60;90.30;;;;;;4931676;29;20202;-70
2022/03/21 06:20:25;;;;;;;8.68;6.65;;;4.70;90.30;;;;;;4931603;29;20202;-69
2022/03/21 06:22:52;;;;;;;7.28;6.57;;;4.70;90.20;;;;;;4931740;29;20301;-70
2022/03/21 06:25:19;;;;;;;7.80;7.22;;;4.80;90.20;;;;;;4930387;29;20364;-70
2022/03/21 06:27:48;;;;;;;15.10;9.68;;;4.80;89.60;;;;;;4932054;29;20297;-69
2022/03/21 06:30:15;;;;;;;10.88;9.57;;;4.90;89.90;;;;;;4934103;29;20209;-69
2022/03/21 06:32:42;;;;;;;10.80;7.55;;;4.90;90.10;;;;;;4934223;29;20761;-70
2022/03/21 06:35:10;;;;;;;9.40;7.90;;;5.00;90.10;;;;;;4935657;29;20218;-68
2022/03/21 06:37:37;;;;;;;8.80;8.10;;;5.00;89.60;;;;;;4932458;29;20291;-70
2022/03/21 06:40:04;;;;;;;11.77;6.97;;;5.10;89.50;;;;;;4931524;29;20198;-69
2022/03/21 06:42:32;;;;;;;10.25;8.95;;;5.10;88.60;;;;;;4927070;29;20209;-68
2022/03/21 06:44:59;;;;;;;11.65;10.35;;;5.20;88.70;;;;;;4932560;29;20665;-69
2022/03/21 06:47:26;;;;;;;9.30;7.50;;;5.20;89.00;;;;;;4931157;29;20210;-69
2022/03/21 06:49:52;;;;;;;14.07;8.77;;;5.20;87.80;;;;;;4931914;29;20241;-68
2022/03/21 06:52:19;;;;;;;10.00;6.72;;;5.20;87.70;;;;;;4930043;29;20913;-68
2022/03/21 06:54:46;;;;;;;8.32;6.70;;;5.30;87.90;;;;;;4929541;29;20212;-69
2022/03/21 06:57:13;;;;;;;6.38;4.88;;;5.30;87.30;;;;;;4922970;29;20205;-68
2022/03/21 06:59:41;;;;;;;7.95;6.15;;;5.30;87.60;;;;;;4932090;29;20691;-69
2022/03/21 07:02:08;;;;;;;6.95;6.35;;;5.40;87.20;;;;;;4930299;29;20264;-69
2022/03/21 07:04:35;;;;;;;10.10;8.00;;;5.40;87.50;;;;;;4930702;29;20206;-69
2022/03/21 07:07:01;;;;;;;11.80;9.13;;;5.40;86.90;;;;;;4928719;29;20310;-69
2022/03/21 07:09:31;;;;;;;10.30;9.05;;;5.40;88.10;;;;;;4927078;29;20273;-69
2022/03/21 07:11:57;;;;;;;8.50;7.82;;;5.50;87.90;;;;;;4930454;29;20305;-69
2022/03/21 07:14:24;;;;;;;8.40;5.07;;;5.50;87.70;;;;;;4931833;29;20290;-69
2022/03/21 07:16:52;;;;;;;12.77;9.90;;;5.50;86.90;;;;;;4931008;29;20329;-69
2022/03/21 07:19:18;;;;;;;14.32;8.00;;;5.50;87.70;;;;;;4930599;29;20217;-69
2022/03/21 07:21:45;;;;;;;11.43;9.80;;;5.50;87.10;;;;;;4931647;29;20267;-69
2022/03/21 07:24:13;;;;;;;10.40;8.07;;;5.60;88.40;;;;;;4930562;29;20218;-69
2022/03/21 07:26:40;;;;;;;11.13;8.95;;;5.70;87.80;;;;;;4933976;29;20221;-70
2022/03/21 07:29:07;;;;;;;7.18;6.55;;;5.80;86.40;;;;;;4925286;29;20306;-69
2022/03/21 07:31:34;;;;;;;12.50;8.75;;;5.80;86.00;;;;;;4918321;29;21748;-69
2022/03/21 07:34:02;;;;;;;14.77;9.95;;;5.80;87.20;;;;;;4926218;29;20218;-69
2022/03/21 07:36:30;;;;;;;9.90;8.43;;;5.90;87.40;;;;;;4933990;29;20469;-69
2022/03/21 07:38:57;;;;;;;9.57;7.72;;;6.00;86.10;;;;;;4934605;29;20834;-69
2022/03/21 07:41:26;;;;;;;11.40;9.32;;;6.10;86.50;;;;;;4931114;29;20206;-70
2022/03/21 07:43:54;;;;;;;8.18;7.43;;;6.10;85.30;;;;;;4929492;29;20225;-70
2022/03/21 07:49:07;;;;;;;13.93;10.45;;;6.20;85.20;;;;;;4922650;29;20338;-69
2022/03/21 07:51:33;;;;;;;14.38;11.55;;;6.30;86.00;;;;;;4932955;29;20206;-69
2022/03/21 07:54:00;;;;;;;11.05;9.93;;;6.40;84.90;;;;;;4930759;29;20278;-69
2022/03/21 07:56:27;;;;;;;12.93;10.55;;;6.50;84.20;;;;;;4932325;29;20274;-69
2022/03/21 07:58:53;;;;;;;12.90;9.85;;;6.60;83.30;;;;;;4933900;29;20239;-69
2022/03/21 08:01:20;;;;;;;7.65;5.70;;;6.70;84.50;;;;;;4931183;29;20713;-69
2022/03/21 08:03:47;;;;;;;8.32;7.13;;;6.70;82.60;;;;;;4933918;29;20205;-69
2022/03/21 08:06:15;;;;;;;14.50;10.50;;;6.80;82.40;;;;;;4933620;29;20256;-69
2022/03/21 08:08:41;;;;;;;8.60;7.20;;;6.90;82.40;;;;;;4934439;29;20654;-69
2022/03/21 08:11:09;;;;;;;14.27;9.98;;;7.00;81.50;;;;;;4930641;29;20206;-69
2022/03/21 08:13:35;;;;;;;10.75;9.57;;;7.10;82.10;;;;;;4930130;29;20237;-70
2022/03/21 08:16:04;;;;;;;11.30;7.32;;;7.20;80.30;;;;;;4940804;28;20253;-69
2022/03/21 08:18:30;;;;;;;14.52;9.32;;;7.20;79.70;;;;;;4939732;28;20241;-69
2022/03/21 08:20:57;;;;;;;7.97;7.20;;;7.30;81.00;;;;;;4933373;29;20210;-69
2022/03/21 08:23:25;;;;;;;10.40;8.15;;;7.40;79.70;;;;;;4929051;29;20205;-70
2022/03/21 08:25:52;;;;;;;12.38;10.65;;;7.50;79.90;;;;;;4934340;29;20401;-69
2022/03/21 08:28:19;;;;;;;8.30;7.32;;;7.50;79.00;;;;;;4934152;29;20258;-69
2022/03/21 08:30:45;;;;;;;14.23;10.30;;;7.50;78.50;;;;;;4933562;29;20213;-69
2022/03/21 08:33:12;;;;;;;8.93;7.97;;;7.60;79.00;;;;;;4932884;29;20230;-69
2022/03/21 08:35:40;;;;;;;5.65;5.18;;;7.70;79.30;;;;;;4932792;29;20230;-70
2022/03/21 08:38:09;;;;;;;9.02;7.30;;;7.80;79.30;;;;;;4931768;29;20218;-70
2022/03/21 08:40:38;;;;;;;11.82;10.52;;;7.90;78.60;;;;;;4930808;29;20202;-69
2022/03/21 08:43:05;;;;;;;6.38;5.72;;;8.00;78.70;;;;;;4927929;29;20206;-70
2022/03/21 08:45:32;;;;;;;21.38;9.60;;;8.00;77.70;;;;;;4931975;29;20312;-70
2022/03/21 08:47:59;;;;;;;10.43;7.82;;;8.10;78.00;;;;;;4918868;29;20207;-70
2022/03/21 08:50:26;;;;;;;11.90;9.15;;;8.10;77.60;;;;;;4932215;29;20280;-70
2022/03/21 08:52:54;;;;;;;14.32;10.60;;;8.20;78.10;;;;;;4933559;29;20235;-69
2022/03/21 08:55:20;;;;;;;15.80;10.30;;;8.40;78.60;;;;;;4931354;29;20222;-68
2022/03/21 08:57:48;;;;;;;12.23;10.05;;;8.40;77.70;;;;;;4934148;29;20233;-69
2022/03/21 09:00:16;;;;;;;12.60;10.50;;;8.40;78.20;;;;;;4933079;29;20273;-68
2022/03/21 09:02:46;;;;;;;13.02;9.73;;;8.50;77.70;;;;;;4933811;29;20201;-69
2022/03/21 09:05:14;;;;;;;13.02;8.82;;;8.60;77.90;;;;;;4933238;29;20225;-68
2022/03/21 09:07:40;;;;;;;13.63;7.68;;;8.70;77.20;;;;;;4929620;29;20292;-68
2022/03/21 09:10:11;;;;;;;7.90;7.07;;;8.70;76.00;;;;;;4933045;29;20206;-70
2022/03/21 09:12:37;;;;;;;9.82;8.02;;;8.80;76.80;;;;;;4932670;29;20476;-68
2022/03/21 09:15:06;;;;;;;10.43;8.88;;;8.90;75.40;;;;;;4933486;29;20245;-69
2022/03/21 09:17:33;;;;;;;8.43;7.40;;;9.00;76.20;;;;;;4933531;29;20216;-69
2022/03/21 09:20:00;;;;;;;10.15;8.65;;;9.10;75.90;;;;;;4933190;29;20276;-69
2022/03/21 09:22:26;;;;;;;10.10;7.15;;;9.20;75.10;;;;;;4934320;29;20206;-69
2022/03/21 09:24:53;;;;;;;13.30;7.25;;;9.10;74.60;;;;;;4933169;29;20715;-68
2022/03/21 09:27:20;;;;;;;6.55;5.90;;;9.20;74.60;;;;;;4933282;29;20214;-68
2022/03/21 09:29:47;;;;;;;13.90;7.63;;;9.20;73.60;;;;;;4929201;29;20332;-70
2022/03/21 09:32:15;;;;;;;15.82;10.60;;;9.20;74.00;;;;;;4932072;29;20257;-69
2022/03/21 09:34:43;;;;;;;7.03;6.35;;;9.30;74.10;;;;;;4933076;29;20208;-69
2022/03/21 09:37:09;;;;;;;13.40;7.88;;;9.40;74.20;;;;;;4932948;29;20210;-69
2022/03/21 09:39:36;;;;;;;8.38;6.40;;;9.40;73.70;;;;;;4922924;29;20205;-68
2022/03/21 09:42:03;;;;;;;10.98;9.85;;;9.50;73.50;;;;;;4929466;29;20205;-70
2022/03/21 09:44:30;;;;;;;14.60;9.32;;;9.50;74.20;;;;;;4933175;29;20197;-69
2022/03/21 09:46:59;;;;;;;9.18;6.85;;;9.60;73.80;;;;;;4928556;29;20214;-68
2022/03/21 09:49:30;;;;;;;14.40;9.95;;;9.70;73.60;;;;;;4929068;29;20667;-68
2022/03/21 09:51:59;;;;;;;9.88;8.88;;;9.70;72.70;;;;;;4931459;29;20289;-69
2022/03/21 09:54:25;;;;;;;7.47;6.38;;;9.80;72.50;;;;;;4932449;29;20300;-68
2022/03/21 09:56:52;;;;;;;11.27;9.18;;;9.90;71.80;;;;;;4932993;29;20238;-68
2022/03/21 09:59:19;;;;;;;13.00;10.43;;;10.00;70.60;;;;;;4932640;29;20214;-69
2022/03/21 10:01:46;;;;;;;10.00;8.93;;;10.00;70.60;;;;;;4931268;29;20210;-71
2022/03/21 10:04:12;;;;;;;9.80;8.52;;;10.10;70.60;;;;;;4932758;29;20300;-71
2022/03/21 10:06:41;;;;;;;11.90;10.23;;;10.20;70.20;;;;;;4932428;29;20293;-72
2022/03/21 10:09:11;;;;;;;14.80;10.55;;;10.20;69.70;;;;;;4932514;29;20240;-69
2022/03/21 10:11:39;;;;;;;11.70;10.60;;;10.20;69.70;;;;;;4931829;29;20523;-69
2022/03/21 10:14:27;;;;;;;12.55;11.00;;;10.20;69.60;;;;;;4929184;29;20342;-69
2022/03/21 10:16:57;;;;;;;15.20;11.02;;;10.30;69.30;;;;;;4926741;29;20233;-69
2022/03/21 10:19:24;;;;;;;11.15;9.95;;;10.40;69.40;;;;;;4931930;29;20202;-69
2022/03/21 10:22:04;;;;;;;16.10;10.98;;;10.40;69.80;;;;;;4932517;29;20225;-69
2022/03/21 10:24:35;;;;;;;11.95;10.95;;;10.50;69.10;;;;;;4926600;29;20266;-68
2022/03/21 10:27:02;;;;;;;15.35;8.60;;;10.50;69.50;;;;;;4932710;29;20206;-68
2022/03/21 10:29:29;;;;;;;9.45;7.47;;;10.60;68.10;;;;;;4931471;29;20202;-69
2022/03/21 10:31:56;;;;;;;7.88;7.13;;;10.60;68.30;;;;;;4930621;29;20202;-69
2022/03/21 10:34:29;;;;;;;13.43;9.90;;;10.60;68.00;;;;;;4932190;29;20801;-69
2022/03/21 10:37:10;;;;;;;11.05;7.72;;;10.70;69.10;;;;;;4925355;29;20229;-70
2022/03/21 10:39:39;;;;;;;17.10;7.60;;;10.80;68.90;;;;;;4931850;29;20277;-69
2022/03/21 10:42:09;;;;;;;8.88;7.00;;;10.80;67.50;;;;;;4919149;29;20282;-70
2022/03/21 10:44:36;;;;;;;8.52;6.50;;;10.80;67.50;;;;;;4923837;29;20197;-69
2022/03/21 10:47:05;;;;;;;11.43;8.77;;;10.90;67.30;;;;;;4929663;29;20206;-69
2022/03/21 10:49:34;;;;;;;10.73;8.60;;;10.90;67.50;;;;;;4931719;29;20217;-69
2022/03/21 10:52:02;;;;;;;9.80;7.43;;;11.00;67.50;;;;;;4932111;29;20202;-69
2022/03/21 10:54:45;;;;;;;11.55;10.30;;;11.00;68.00;;;;;;4930783;29;20226;-68
2022/03/21 10:57:32;;;;;;;9.18;7.22;;;11.10;67.00;;;;;;4932145;29;20304;-70
2022/03/21 11:00:15;;;;;;;13.13;10.43;;;11.20;66.80;;;;;;4931668;29;20209;-71
2022/03/21 11:02:54;;;;;;;10.13;7.93;;;11.40;67.50;;;;;;4932390;29;20265;-76
2022/03/21 11:05:22;;;;;;;8.85;7.97;;;11.40;67.10;;;;;;4936836;29;20316;-72
2022/03/21 11:07:49;;;;;;;11.95;9.98;;;11.60;66.30;;;;;;4931378;29;20218;-68
2022/03/21 11:10:18;;;;;;;15.15;8.68;;;11.60;66.20;;;;;;4934436;29;20632;-68
2022/03/21 11:12:46;;;;;;;9.30;7.28;;;11.50;66.10;;;;;;4930047;29;20207;-68
2022/03/21 11:15:13;;;;;;;15.57;11.75;;;11.50;66.10;;;;;;4933840;29;20604;-68
2022/03/21 11:17:42;;;;;;;15.02;9.20;;;11.40;66.10;;;;;;4934085;29;20210;-68
2022/03/21 11:20:10;;;;;;;10.77;9.70;;;11.60;66.00;;;;;;4921016;29;20293;-68
2022/03/21 11:22:38;;;;;;;14.02;11.27;;;11.60;66.10;;;;;;4933010;29;20210;-67
2022/03/21 11:25:07;;;;;;;11.13;10.00;;;11.70;67.10;;;;;;4934414;29;20222;-68
2022/03/21 11:27:48;;;;;;;9.85;7.00;;;11.80;65.70;;;;;;4934935;29;20210;-68
2022/03/21 11:30:21;;;;;;;15.35;11.18;;;11.80;65.90;;;;;;4931882;29;20289;-68
2022/03/21 11:32:55;;;;;;;11.98;9.38;;;11.90;67.20;;;;;;4934238;29;20205;-68
2022/03/21 11:35:28;;;;;;;9.77;8.45;;;11.90;66.60;;;;;;4934695;29;20600;-69
2022/03/21 11:37:55;;;;;;;11.55;10.38;;;11.90;66.60;;;;;;4934537;29;20734;-68
2022/03/21 11:40:33;;;;;;;10.20;7.65;;;11.90;66.40;;;;;;4934057;29;20280;-68
2022/03/21 11:43:26;;;;;;;14.70;11.95;;;11.90;67.20;;;;;;4923678;29;20289;-68
2022/03/21 11:45:55;;;;;;;11.82;10.02;;;11.90;67.50;;;;;;4934116;29;20248;-68
2022/03/21 11:48:38;;;;;;;7.68;6.93;;;12.00;67.70;;;;;;4934004;29;20302;-69
2022/03/21 11:51:29;;;;;;;14.70;11.60;;;12.00;66.80;;;;;;4934069;29;20209;-69
2022/03/21 11:53:57;;;;;;;12.13;9.32;;;12.00;67.80;;;;;;4934245;29;20237;-70
2022/03/21 11:56:53;;;;;;;13.73;9.55;;;12.00;67.40;;;;;;4932033;29;20738;-69
2022/03/21 11:59:49;;;;;;;11.45;10.18;;;12.00;66.50;;;;;;4934059;29;20291;-69
2022/03/21 12:03:00;;;;;;;10.27;9.32;;;12.10;67.60;;;;;;4924962;29;20242;-69
2022/03/21 12:05:50;;;;;;;11.20;8.55;;;12.20;67.70;;;;;;4893680;29;20341;-69
2022/03/21 12:08:36;;;;;;;11.60;9.20;;;12.30;66.70;;;;;;4930793;29;20237;-68
2022/03/21 12:11:03;;;;;;;11.30;9.50;;;12.30;66.80;;;;;;4914699;29;20707;-68
2022/03/21 12:13:42;;;;;;;9.65;8.65;;;12.30;67.00;;;;;;4925408;29;20774;-69
2022/03/21 12:16:21;;;;;;;10.38;8.95;;;12.30;66.20;;;;;;4933405;29;20300;-69
2022/03/21 12:19:02;;;;;;;11.40;7.55;;;12.30;66.30;;;;;;4929025;29;20210;-68
2022/03/21 12:21:28;;;;;;;11.32;9.35;;;12.30;66.50;;;;;;4933244;29;20205;-69
2022/03/21 12:24:15;;;;;;;14.80;10.15;;;12.20;67.10;;;;;;4933537;29;20198;-68
2022/03/21 12:26:49;;;;;;;15.20;11.68;;;12.30;67.40;;;;;;4929741;28;20250;-68
2022/03/21 12:29:33;;;;;;;12.52;11.23;;;12.30;67.30;;;;;;4933219;29;20465;-69
2022/03/21 12:32:28;;;;;;;12.00;10.03;;;12.40;67.00;;;;;;4928402;29;20662;-69
2022/03/21 12:34:55;;;;;;;11.93;10.73;;;12.40;66.80;;;;;;4933737;29;20584;-68
2022/03/21 12:37:42;;;;;;;11.70;9.63;;;12.50;67.40;;;;;;4934890;29;20506;-69
2022/03/21 12:40:11;;;;;;;11.57;10.23;;;12.50;67.90;;;;;;4952170;28;20232;-69
2022/03/21 12:42:43;;;;;;;13.02;10.38;;;12.60;66.90;;;;;;4953598;28;20469;-69
2022/03/21 12:45:09;;;;;;;12.10;10.80;;;12.60;66.70;;;;;;4953181;28;20353;-70
2022/03/21 12:47:39;;;;;;;13.93;12.40;;;12.60;66.50;;;;;;4953543;28;20455;-69
2022/03/21 12:50:07;;;;;;;13.25;10.25;;;12.60;66.40;;;;;;4938106;28;20903;-69
2022/03/21 12:52:34;;;;;;;14.10;11.90;;;12.70;67.10;;;;;;4934120;29;20210;-70
2022/03/21 12:55:01;;;;;;;13.80;10.83;;;12.80;66.70;;;;;;4933461;29;20508;-69
2022/03/21 12:57:27;;;;;;;13.32;11.27;;;12.90;66.90;;;;;;4933812;29;20466;-70
2022/03/21 13:00:14;;;;;;;12.20;11.00;;;12.90;66.20;;;;;;4933261;29;20213;-68
2022/03/21 13:02:41;;;;;;;11.97;9.43;;;12.90;65.40;;;;;;4932870;29;20474;-69
2022/03/21 13:10:40;;;;;;;14.87;11.17;;;13.00;65.60;;;;;;4933572;29;20724;-69
2022/03/21 13:13:07;;;;;;;12.20;8.77;;;13.00;64.40;;;;;;4933907;29;20470;-69
2022/03/21 13:15:35;;;;;;;10.00;8.97;;;13.00;63.80;;;;;;4932850;29;20910;-70
2022/03/21 13:18:04;;;;;;;13.70;10.00;;;13.00;65.00;;;;;;4933000;29;20520;-71
2022/03/21 13:20:34;;;;;;;12.55;9.23;;;13.00;63.80;;;;;;4927740;29;20265;-71
2022/03/21 13:23:02;;;;;;;13.05;10.90;;;12.90;63.60;;;;;;4932094;29;20206;-69
2022/03/21 13:25:31;;;;;;;14.23;12.60;;;13.00;64.40;;;;;;4932986;29;20711;-69
2022/03/21 13:28:12;;;;;;;12.33;11.10;;;13.10;64.50;;;;;;4927570;29;20490;-69
2022/03/21 13:30:57;;;;;;;10.53;7.70;;;13.20;64.50;;;;;;4931567;29;20865;-69
2022/03/21 13:33:27;;;;;;;16.07;11.77;;;13.30;64.00;;;;;;4928875;29;20966;-69
2022/03/21 13:35:55;;;;;;;17.30;11.80;;;13.40;62.90;;;;;;4922109;29;20478;-68
2022/03/21 13:38:23;;;;;;;13.00;11.10;;;13.50;63.60;;;;;;4932345;29;20468;-72
2022/03/21 13:40:50;;;;;;;9.23;7.93;;;13.50;62.70;;;;;;4931676;29;20481;-68
2022/03/21 13:43:18;;;;;;;14.47;11.50;;;13.50;64.00;;;;;;4932972;29;20476;-68
2022/03/21 13:45:45;;;;;;;12.40;11.10;;;13.50;63.30;;;;;;4932282;29;20537;-69
2022/03/21 13:48:12;;;;;;;12.93;11.30;;;13.50;63.90;;;;;;4932957;29;20465;-69
2022/03/21 13:50:39;;;;;;;15.43;12.17;;;13.50;63.30;;;;;;4930995;29;20461;-68
2022/03/21 13:53:25;;;;;;;12.63;9.20;;;13.60;63.70;;;;;;4932534;29;20466;-69
2022/03/21 13:55:52;;;;;;;14.50;12.83;;;13.70;63.30;;;;;;4931887;29;20866;-69
2022/03/21 13:58:25;;;;;;;13.50;9.27;;;13.70;63.20;;;;;;4930024;29;20466;-69
2022/03/21 14:00:52;;;;;;;13.00;11.67;;;13.80;62.70;;;;;;4930934;29;20476;-69
2022/03/21 14:03:34;;;;;;;13.63;12.07;;;13.80;62.70;;;;;;4931743;29;20528;-69
2022/03/21 14:06:04;;;;;;;11.77;10.53;;;13.70;61.40;;;;;;4931928;29;20485;-68
2022/03/21 14:08:31;;;;;;;11.73;10.33;;;13.80;60.90;;;;;;4931722;29;20536;-70
2022/03/21 14:11:06;;;;;;;13.90;11.40;;;13.70;60.80;;;;;;4931400;29;20481;-67
2022/03/21 14:13:37;;;;;;;13.83;10.70;;;13.70;60.90;;;;;;4932349;29;20965;-68
2022/03/21 14:16:05;;;;;;;14.13;12.70;;;13.70;60.10;;;;;;4931724;29;20952;-70
2022/03/21 14:18:34;;;;;;;16.77;10.03;;;13.70;61.10;;;;;;4932629;29;20577;-70
2022/03/21 14:21:04;;;;;;;12.10;10.93;;;13.70;60.20;;;;;;4931982;29;20525;-69
2022/03/21 14:23:31;;;;;;;10.13;8.77;;;13.70;60.30;;;;;;4932146;29;20485;-69
2022/03/21 14:28:43;;;;;;;12.47;9.70;;;13.80;59.60;;;;;;4932005;29;20453;-68
2022/03/21 14:31:11;;;;;;;14.30;10.73;;;13.70;59.90;;;;;;4931736;29;20461;-69
2022/03/21 14:33:38;;;;;;;15.50;11.60;;;13.70;59.80;;;;;;4932305;29;20462;-69
2022/03/21 14:36:08;;;;;;;11.93;10.70;;;13.70;60.80;;;;;;4935453;29;20492;-68
2022/03/21 14:38:36;;;;;;;11.67;10.47;;;13.80;60.10;;;;;;4925659;29;20578;-69
2022/03/21 14:41:03;;;;;;;15.17;11.10;;;13.80;60.30;;;;;;4917050;29;20534;-69
2022/03/21 14:43:30;;;;;;;11.80;10.60;;;13.80;60.30;;;;;;4934639;29;20966;-68
2022/03/21 14:45:58;;;;;;;10.23;9.23;;;13.70;59.60;;;;;;4935650;29;20508;-69
2022/03/21 14:48:27;;;;;;;7.10;6.40;;;13.70;59.90;;;;;;4934236;29;20481;-69
2022/03/21 14:50:55;;;;;;;10.93;9.73;;;13.70;59.70;;;;;;4932032;29;20548;-69
2022/03/21 14:53:23;;;;;;;13.53;10.77;;;13.70;60.40;;;;;;4937423;29;20465;-69
2022/03/21 14:55:49;;;;;;;12.33;11.00;;;13.80;59.80;;;;;;4955288;28;20492;-70
2022/03/21 14:58:17;;;;;;;11.93;10.77;;;13.80;59.60;;;;;;4940985;28;20471;-68
2022/03/21 15:00:44;;;;;;;11.20;10.00;;;13.80;59.50;;;;;;4935210;29;20480;-69
2022/03/21 15:03:10;;;;;;;12.87;10.93;;;13.80;59.70;;;;;;4935763;29;20461;-69
2022/03/21 15:05:38;;;;;;;17.30;11.83;;;13.80;59.60;;;;;;4935411;29;20524;-69
2022/03/21 15:08:06;;;;;;;11.87;10.67;;;13.80;59.70;;;;;;4935248;29;20549;-68
2022/03/21 15:10:35;;;;;;;10.07;7.17;;;13.80;59.90;;;;;;4935325;29;20989;-68
2022/03/21 15:13:03;;;;;;;17.20;10.33;;;13.80;59.40;;;;;;4935604;29;20525;-68
2022/03/21 15:15:31;;;;;;;13.80;11.37;;;13.70;59.10;;;;;;4935422;29;20501;-69
2022/03/21 15:17:58;;;;;;;14.70;11.80;;;13.70;59.70;;;;;;4935292;29;20461;-69
2022/03/21 15:20:27;;;;;;;11.20;9.87;;;13.70;60.20;;;;;;4934102;29;20465;-68
2022/03/21 15:22:53;;;;;;;11.33;8.33;;;13.60;59.60;;;;;;4934640;29;20598;-68
2022/03/21 15:25:21;;;;;;;13.60;10.67;;;13.50;59.00;;;;;;4935330;29;20588;-68
2022/03/21 15:27:50;;;;;;;11.43;10.33;;;13.50;59.60;;;;;;4934833;29;20516;-68
2022/03/21 15:30:17;;;;;;;13.60;9.93;;;13.50;59.70;;;;;;4934458;29;20931;-68
2022/03/21 15:32:45;;;;;;;9.93;7.97;;;13.50;59.90;;;;;;4934680;29;20465;-69
2022/03/21 15:35:12;;;;;;;12.23;9.50;;;13.50;59.10;;;;;;4934367;29;20577;-68
2022/03/21 15:43:10;;;;;;;11.52;10.43;;;13.50;59.10;;;;;;4932399;29;20426;-67
2022/03/21 15:45:37;;;;;;;10.63;9.53;;;13.40;59.30;;;;;;4934309;29;20308;-68
2022/03/21 15:48:05;;;;;;;15.37;11.20;;;13.40;59.80;;;;;;4923529;29;20474;-68
2022/03/21 15:50:34;;;;;;;9.20;7.53;;;13.40;60.00;;;;;;4934956;29;20548;-68
2022/03/21 15:53:02;;;;;;;10.00;8.60;;;13.30;60.10;;;;;;4934133;29;20462;-69
2022/03/21 15:55:29;;;;;;;13.03;9.63;;;13.30;60.00;;;;;;4934236;29;21456;-68
2022/03/21 15:57:56;;;;;;;12.67;10.73;;;13.20;59.70;;;;;;4931944;29;20831;-68
2022/03/21 16:00:27;;;;;;;12.67;11.00;;;13.10;59.80;;;;;;4933448;29;20548;-69
2022/03/21 16:02:55;;;;;;;14.27;11.30;;;13.00;60.50;;;;;;4934183;29;20833;-70
2022/03/21 16:05:23;;;;;;;11.50;10.33;;;13.00;60.40;;;;;;4934586;29;20593;-68
2022/03/21 16:07:50;;;;;;;10.93;9.82;;;13.00;60.30;;;;;;4933027;29;20481;-68
2022/03/21 16:10:17;;;;;;;13.07;10.50;;;13.00;60.30;;;;;;4927720;29;20217;-69
2022/03/21 16:12:43;;;;;;;12.70;11.40;;;13.00;59.50;;;;;;4934097;29;20280;-69
2022/03/21 16:15:12;;;;;;;14.90;10.33;;;13.00;59.70;;;;;;4933770;29;20313;-68
2022/03/21 16:17:41;;;;;;;12.57;10.20;;;13.00;59.70;;;;;;4922420;29;20461;-68
2022/03/21 16:20:09;;;;;;;11.50;10.23;;;13.00;60.20;;;;;;4933903;29;20665;-68
2022/03/21 16:22:36;;;;;;;13.23;10.33;;;12.90;60.50;;;;;;4934257;29;20469;-69
2022/03/21 16:25:03;;;;;;;12.07;10.98;;;12.90;61.30;;;;;;4933877;29;20536;-69
2022/03/21 16:27:30;;;;;;;10.48;9.10;;;12.90;61.30;;;;;;4934565;29;20329;-68
2022/03/21 16:29:58;;;;;;;11.45;9.30;;;12.90;60.00;;;;;;4933977;29;20675;-69
2022/03/21 16:32:25;;;;;;;12.82;8.70;;;12.80;61.40;;;;;;4933328;29;20286;-69
2022/03/21 16:34:53;;;;;;;11.93;10.30;;;12.80;60.20;;;;;;4934573;29;20718;-69
2022/03/21 16:37:20;;;;;;;14.23;10.65;;;12.70;60.40;;;;;;4934106;29;20213;-69
2022/03/21 16:39:48;;;;;;;12.63;9.48;;;12.70;60.50;;;;;;4933394;29;20734;-69
2022/03/21 16:42:15;;;;;;;11.68;9.75;;;12.70;60.60;;;;;;4933575;29;20278;-69
2022/03/21 16:44:42;;;;;;;14.83;11.07;;;12.60;61.30;;;;;;4933038;29;20304;-69
2022/03/21 16:47:09;;;;;;;9.90;8.88;;;12.60;61.00;;;;;;4932087;29;20471;-69
2022/03/21 16:49:38;;;;;;;12.63;9.90;;;12.60;61.60;;;;;;4933003;29;20229;-68
2022/03/21 16:52:11;;;;;;;11.98;10.88;;;12.50;61.40;;;;;;4932957;29;20474;-69
2022/03/21 16:54:39;;;;;;;14.00;11.38;;;12.50;61.70;;;;;;4932899;29;20265;-69
2022/03/21 16:57:05;;;;;;;9.90;9.00;;;12.40;62.00;;;;;;4933304;29;20212;-70
2022/03/21 16:59:32;;;;;;;10.75;8.75;;;12.40;61.80;;;;;;4932308;29;20210;-68
2022/03/21 17:01:59;;;;;;;13.05;10.77;;;12.30;62.60;;;;;;4932894;29;20205;-69
2022/03/21 17:04:25;;;;;;;11.35;10.10;;;12.30;62.10;;;;;;4933104;29;20217;-68
2022/03/21 17:06:52;;;;;;;10.55;9.45;;;12.20;62.90;;;;;;4932977;29;20229;-69
2022/03/21 17:09:20;;;;;;;13.85;11.38;;;12.10;63.30;;;;;;4933773;29;20230;-71
2022/03/21 17:11:46;;;;;;;12.65;11.38;;;12.00;64.10;;;;;;4932438;29;20205;-69
2022/03/21 17:14:14;;;;;;;13.85;11.68;;;12.00;64.40;;;;;;4929822;29;20206;-70
2022/03/21 17:16:41;;;;;;;15.80;10.60;;;11.90;64.40;;;;;;4932492;29;20242;-69
2022/03/21 17:24:40;;;;;;;14.65;10.93;;;11.60;66.40;;;;;;4920087;29;20213;-70
2022/03/21 17:27:06;;;;;;;14.68;11.05;;;11.50;66.70;;;;;;4932713;29;20213;-70
2022/03/21 17:29:33;;;;;;;13.68;11.02;;;11.50;67.00;;;;;;4925536;29;20210;-69
2022/03/21 17:32:02;;;;;;;13.57;11.35;;;11.40;67.60;;;;;;4930522;29;20261;-70
2022/03/21 17:34:29;;;;;;;12.55;10.23;;;11.40;67.50;;;;;;4923843;29;20207;-70
2022/03/21 17:36:56;;;;;;;13.00;11.32;;;11.30;67.70;;;;;;4931740;29;20239;-70
2022/03/21 17:39:24;;;;;;;13.98;11.32;;;11.30;68.20;;;;;;4932031;29;20224;-73
2022/03/21 17:41:54;;;;;;;13.57;11.65;;;11.20;68.40;;;;;;4931829;29;20304;-73
2022/03/21 17:44:21;;;;;;;16.00;11.63;;;11.10;69.00;;;;;;4930256;29;20388;-72
2022/03/21 17:46:48;;;;;;;14.60;10.68;;;11.00;69.00;;;;;;4925877;29;20285;-71
2022/03/21 17:49:15;;;;;;;13.75;12.35;;;10.90;69.70;;;;;;4929317;29;20216;-71
2022/03/21 17:51:44;;;;;;;15.95;11.60;;;10.80;69.40;;;;;;4923360;29;20228;-73
2022/03/21 17:54:11;;;;;;;16.38;12.30;;;10.80;69.60;;;;;;4924720;29;20341;-71
2022/03/21 17:56:38;;;;;;;17.70;11.40;;;10.70;69.70;;;;;;4929906;29;20230;-71
2022/03/21 17:59:07;;;;;;;11.95;10.13;;;10.70;70.10;;;;;;4932193;29;20202;-69
2022/03/21 18:01:34;;;;;;;13.80;10.23;;;10.60;70.00;;;;;;4930765;29;20667;-69
2022/03/21 18:04:00;;;;;;;16.98;12.38;;;10.60;70.20;;;;;;4930590;29;20297;-71
2022/03/21 18:06:27;;;;;;;15.07;10.73;;;10.60;70.50;;;;;;4930711;29;20233;-68
2022/03/21 18:08:53;;;;;;;15.00;11.07;;;10.50;70.20;;;;;;4929786;29;20210;-68
2022/03/21 18:11:20;;;;;;;14.52;11.73;;;10.50;70.30;;;;;;4930876;29;20210;-68
2022/03/21 18:13:47;;;;;;;14.90;10.68;;;10.50;70.30;;;;;;4927734;29;20209;-71
2022/03/21 18:16:16;;;;;;;16.08;11.90;;;10.40;70.70;;;;;;4931514;29;20702;-68
2022/03/21 18:18:43;;;;;;;14.23;12.32;;;10.30;70.70;;;;;;4931239;29;20210;-70
2022/03/21 18:21:10;;;;;;;17.33;11.23;;;10.30;70.80;;;;;;4931042;29;20822;-69
2022/03/21 18:23:36;;;;;;;13.25;10.90;;;10.20;71.10;;;;;;4925787;29;20229;-70